createdAt,value
2019-03-15T00:00:17.530Z,1.53
2019-03-15T00:02:46.301Z,1.40
2019-03-15T00:05:15.076Z,1.70
2019-03-15T00:07:43.511Z,1.60
2019-03-15T00:10:12.005Z,1.60
2019-03-15T00:12:40.473Z,1.50
2019-03-15T00:15:09.510Z,1.60
2019-03-15T00:17:37.943Z,1.70
2019-03-15T00:20:10.637Z,1.90
2019-03-15T00:22:39.461Z,2.10
2019-03-15T00:25:08.220Z,2.10
2019-03-15T00:27:36.675Z,2.00
2019-03-15T00:30:08.850Z,2.00
2019-03-15T00:32:37.339Z,2.00
2019-03-15T00:35:07.530Z,2.00
2019-03-15T00:37:35.964Z,1.87
2019-03-15T00:40:07.613Z,1.97
2019-03-15T00:42:36.095Z,1.83
2019-03-15T00:45:08.302Z,1.83
2019-03-15T00:47:36.623Z,1.50
2019-03-15T00:50:08.025Z,1.70
2019-03-15T00:52:36.458Z,3.20
2019-03-15T00:55:06.416Z,2.10
2019-03-15T00:57:34.878Z,2.70
2019-03-15T01:00:05.461Z,1.70
2019-03-15T01:02:33.886Z,1.90
2019-03-15T01:05:02.353Z,1.60
2019-03-15T01:07:30.789Z,1.80
2019-03-15T01:09:59.218Z,1.60
2019-03-15T01:12:27.783Z,1.50
2019-03-15T01:14:56.227Z,1.30
2019-03-15T01:17:24.726Z,1.30
2019-03-15T01:19:53.695Z,1.50
2019-03-15T01:22:22.123Z,1.40
2019-03-15T01:24:50.546Z,1.30
2019-03-15T01:27:19.194Z,1.20
2019-03-15T01:29:47.619Z,1.30
2019-03-15T01:32:16.324Z,1.30
2019-03-15T01:34:44.962Z,1.27
2019-03-15T01:37:13.715Z,1.10
2019-03-15T01:39:42.147Z,1.10
2019-03-15T01:42:10.667Z,1.30
2019-03-15T01:44:39.096Z,1.10
2019-03-15T01:47:07.651Z,1.30
2019-03-15T01:49:36.270Z,1.17
2019-03-15T01:52:04.841Z,1.40
2019-03-15T01:54:33.294Z,1.20
2019-03-15T01:57:01.812Z,1.30
2019-03-15T01:59:30.584Z,1.13
2019-03-15T02:01:59.014Z,1.20
2019-03-15T02:04:28.058Z,1.20
2019-03-15T02:06:56.492Z,1.50
2019-03-15T02:09:24.919Z,2.30
2019-03-15T02:11:53.727Z,2.77
2019-03-15T02:14:22.157Z,2.30
2019-03-15T02:16:50.592Z,2.10
2019-03-15T02:19:19.055Z,2.50
2019-03-15T02:21:47.488Z,2.83
2019-03-15T02:24:15.920Z,3.07
2019-03-15T02:26:44.425Z,3.40
2019-03-15T02:29:12.944Z,3.40
2019-03-15T02:31:41.396Z,3.60
2019-03-15T02:34:09.844Z,3.33
2019-03-15T02:36:38.287Z,3.13
2019-03-15T02:39:07.089Z,3.50
2019-03-15T02:41:35.551Z,3.10
2019-03-15T02:44:04.068Z,2.80
2019-03-15T02:46:32.511Z,2.50
2019-03-15T02:49:01.000Z,2.50
2019-03-15T02:51:29.485Z,2.80
2019-03-15T02:53:57.915Z,2.57
2019-03-15T02:56:26.354Z,2.50
2019-03-15T02:58:54.793Z,2.67
2019-03-15T03:01:23.222Z,2.70
2019-03-15T03:03:51.682Z,2.50
2019-03-15T03:06:20.114Z,2.53
2019-03-15T03:08:48.897Z,2.40
2019-03-15T03:11:17.358Z,2.33
2019-03-15T03:13:45.863Z,2.30
2019-03-15T03:16:14.300Z,2.40
2019-03-15T03:18:42.844Z,2.13
2019-03-15T03:21:11.275Z,2.00
2019-03-15T03:23:39.713Z,2.13
2019-03-15T03:26:08.172Z,2.00
2019-03-15T03:28:36.598Z,1.90
2019-03-15T03:31:05.062Z,1.97
2019-03-15T03:33:33.569Z,2.10
2019-03-15T03:36:01.999Z,2.00
2019-03-15T03:38:30.498Z,1.83
2019-03-15T03:40:58.955Z,1.80
2019-03-15T03:43:27.399Z,2.17
2019-03-15T03:45:55.887Z,1.80
2019-03-15T03:48:24.353Z,1.90
2019-03-15T03:50:52.784Z,1.97
2019-03-15T03:53:21.227Z,1.80
2019-03-15T03:55:49.935Z,1.97
2019-03-15T03:58:18.369Z,1.90
2019-03-15T04:00:47.276Z,1.90
2019-03-15T04:03:15.826Z,1.90
2019-03-15T04:05:44.260Z,1.90
2019-03-15T04:08:13.052Z,1.73
2019-03-15T04:10:41.695Z,2.07
2019-03-15T04:13:10.147Z,1.90
2019-03-15T04:15:38.753Z,1.80
2019-03-15T04:18:07.207Z,1.87
2019-03-15T04:20:35.638Z,2.30
2019-03-15T04:23:04.150Z,1.93
2019-03-15T04:25:32.598Z,2.20
2019-03-15T04:28:01.030Z,1.83
2019-03-15T04:30:29.476Z,2.10
2019-03-15T04:32:59.389Z,2.00
2019-03-15T04:35:27.926Z,1.80
2019-03-15T04:37:56.434Z,2.10
2019-03-15T04:40:24.903Z,1.70
2019-03-15T04:42:53.328Z,1.80
2019-03-15T04:45:21.749Z,1.80
2019-03-15T04:47:50.241Z,2.20
2019-03-15T04:50:18.670Z,1.90
2019-03-15T04:52:47.158Z,1.90
2019-03-15T04:55:15.611Z,1.93
2019-03-15T04:57:44.058Z,2.30
2019-03-15T05:00:13.726Z,1.90
2019-03-15T05:02:42.260Z,2.60
2019-03-15T05:05:10.851Z,1.93
2019-03-15T05:07:39.289Z,1.80
2019-03-15T05:10:09.513Z,1.70
2019-03-15T05:12:38.297Z,1.50
2019-03-15T05:15:09.363Z,1.50
2019-03-15T05:17:37.813Z,1.87
2019-03-15T05:20:08.886Z,1.87
2019-03-15T05:22:37.543Z,1.87
2019-03-15T05:25:07.518Z,1.60
2019-03-15T05:27:35.966Z,1.70
2019-03-15T05:30:06.919Z,1.80
2019-03-15T05:32:35.679Z,1.70
2019-03-15T05:35:05.141Z,1.50
2019-03-15T05:37:33.579Z,1.53
2019-03-15T05:40:02.317Z,1.60
2019-03-15T05:42:30.745Z,1.97
2019-03-15T05:44:59.187Z,1.80
2019-03-15T05:47:27.665Z,1.90
2019-03-15T05:49:56.118Z,2.23
2019-03-15T05:52:24.624Z,2.30
2019-03-15T05:54:53.083Z,2.10
2019-03-15T05:57:21.506Z,2.10
2019-03-15T05:59:49.951Z,2.37
2019-03-15T06:02:18.427Z,2.03
2019-03-15T06:04:47.122Z,2.73
2019-03-15T06:07:15.555Z,2.03
2019-03-15T06:09:44.406Z,2.60
2019-03-15T06:12:12.845Z,2.10
2019-03-15T06:14:41.283Z,1.97
2019-03-15T06:17:09.741Z,2.00
2019-03-15T06:19:38.195Z,2.33
2019-03-15T06:22:06.626Z,2.13
2019-03-15T06:24:35.103Z,1.97
2019-03-15T06:27:03.904Z,2.00
2019-03-15T06:29:32.337Z,1.80
2019-03-15T06:32:01.012Z,1.50
2019-03-15T06:34:29.441Z,1.60
2019-03-15T06:36:57.864Z,2.03
2019-03-15T06:39:26.332Z,1.90
2019-03-15T06:41:54.863Z,1.80
2019-03-15T06:44:23.350Z,1.70
2019-03-15T06:46:52.714Z,1.50
2019-03-15T06:49:21.346Z,1.40
2019-03-15T06:51:49.854Z,1.37
2019-03-15T06:54:18.403Z,1.53
2019-03-15T06:56:46.826Z,1.50
2019-03-15T06:59:15.255Z,1.20
2019-03-15T07:01:43.866Z,1.30
2019-03-15T07:04:12.373Z,1.60
2019-03-15T07:06:40.799Z,1.40
2019-03-15T07:09:09.288Z,1.40
2019-03-15T07:11:38.070Z,1.50
2019-03-15T07:14:06.482Z,1.40
2019-03-15T07:16:38.038Z,1.50
2019-03-15T07:19:05.102Z,1.50
2019-03-15T07:21:36.660Z,1.63
2019-03-15T07:24:03.733Z,1.50
2019-03-15T07:26:33.103Z,1.70
2019-03-15T07:29:01.534Z,1.70
2019-03-15T07:31:30.020Z,1.50
2019-03-15T07:33:58.446Z,1.50
2019-03-15T07:36:26.887Z,1.60
2019-03-15T07:38:55.354Z,2.00
2019-03-15T07:41:25.450Z,1.50
2019-03-15T07:43:54.219Z,1.70
2019-03-15T07:46:22.849Z,2.20
2019-03-15T07:48:51.277Z,1.90
2019-03-15T07:51:19.703Z,1.90
2019-03-15T07:53:48.171Z,2.03
2019-03-15T07:56:16.598Z,1.90
2019-03-15T07:58:45.054Z,1.70
2019-03-15T08:01:13.651Z,1.70
2019-03-15T08:03:42.335Z,1.60
2019-03-15T08:06:10.781Z,1.67
2019-03-15T08:08:39.447Z,1.50
2019-03-15T08:11:08.448Z,1.50
2019-03-15T08:13:37.142Z,1.53
2019-03-15T08:16:05.642Z,1.30
2019-03-15T08:18:34.074Z,1.40
2019-03-15T08:21:02.527Z,1.40
2019-03-15T08:23:31.015Z,1.40
2019-03-15T08:25:59.500Z,1.27
2019-03-15T08:28:28.006Z,1.13
2019-03-15T08:30:56.478Z,1.30
2019-03-15T08:33:24.919Z,1.20
2019-03-15T08:35:53.347Z,1.10
2019-03-15T08:38:21.859Z,1.17
2019-03-15T08:40:50.304Z,1.13
2019-03-15T08:43:18.797Z,1.30
2019-03-15T08:45:47.263Z,1.10
2019-03-15T08:48:15.696Z,1.00
2019-03-15T08:50:44.376Z,1.10
2019-03-15T08:53:12.843Z,1.10
2019-03-15T08:55:41.286Z,1.00
2019-03-15T08:58:14.521Z,1.13
2019-03-15T09:00:39.902Z,1.10
2019-03-15T09:03:08.415Z,1.00
2019-03-15T09:05:36.857Z,1.07
2019-03-15T09:08:05.317Z,1.00
2019-03-15T09:10:33.806Z,1.30
2019-03-15T09:13:02.317Z,1.00
2019-03-15T09:15:31.054Z,0.80
2019-03-15T09:17:59.647Z,1.10
2019-03-15T09:20:30.434Z,0.97
2019-03-15T09:22:59.544Z,0.83
2019-03-15T09:25:28.994Z,0.87
2019-03-15T09:27:57.568Z,1.00
2019-03-15T09:30:26.277Z,0.90
2019-03-15T09:32:54.717Z,1.00
2019-03-15T09:35:23.149Z,1.00
2019-03-15T09:37:51.701Z,1.00
2019-03-15T09:40:20.132Z,0.97
2019-03-15T09:42:48.578Z,0.90
2019-03-15T09:45:19.294Z,0.90
2019-03-15T09:47:47.901Z,0.80
2019-03-15T09:50:26.589Z,0.93
2019-03-15T09:52:47.362Z,0.80
2019-03-15T09:55:15.965Z,0.97
2019-03-15T09:57:45.003Z,0.90
2019-03-15T10:00:19.420Z,0.97
2019-03-15T10:02:47.865Z,1.00
2019-03-15T10:05:16.422Z,1.10
2019-03-15T10:07:45.913Z,1.37
2019-03-15T10:10:18.824Z,1.10
2019-03-15T10:12:47.425Z,0.90
2019-03-15T10:15:16.739Z,1.20
2019-03-15T10:17:45.571Z,1.00
2019-03-15T10:20:14.948Z,0.90
2019-03-15T10:22:43.561Z,0.97
2019-03-15T10:25:14.336Z,1.10
2019-03-15T10:27:42.754Z,1.10
2019-03-15T10:30:13.572Z,0.90
2019-03-15T10:32:42.003Z,1.00
2019-03-15T10:35:10.675Z,1.10
2019-03-15T10:37:39.147Z,1.03
2019-03-15T10:40:10.987Z,0.90
2019-03-15T10:42:39.422Z,0.90
2019-03-15T10:45:09.889Z,1.00
2019-03-15T10:47:38.336Z,0.97
2019-03-15T10:50:10.145Z,1.10
2019-03-15T10:52:38.638Z,0.90
2019-03-15T10:55:08.408Z,0.90
2019-03-15T10:57:36.838Z,1.40
2019-03-15T11:00:11.320Z,0.90
2019-03-15T11:02:39.748Z,1.00
2019-03-15T11:05:09.935Z,0.90
2019-03-15T11:07:38.416Z,1.00
2019-03-15T11:10:09.394Z,1.43
2019-03-15T11:12:38.495Z,0.90
2019-03-15T11:15:14.829Z,1.00
2019-03-15T11:17:43.608Z,1.07
2019-03-15T11:20:13.013Z,1.00
2019-03-15T11:22:42.375Z,1.20
2019-03-15T11:25:11.640Z,1.00
2019-03-15T11:27:40.066Z,0.90
2019-03-15T11:30:15.062Z,0.90
2019-03-15T11:32:43.546Z,0.80
2019-03-15T11:35:12.513Z,1.00
2019-03-15T11:37:41.320Z,0.77
2019-03-15T11:40:14.621Z,0.90
2019-03-15T11:42:43.616Z,1.00
2019-03-15T11:45:13.523Z,0.90
2019-03-15T11:48:01.446Z,0.90
2019-03-15T11:50:14.487Z,1.00
2019-03-15T11:52:43.054Z,1.00
2019-03-15T11:55:11.861Z,1.00
2019-03-15T11:57:40.531Z,0.90
2019-03-15T12:00:17.104Z,0.90
2019-03-15T12:02:45.738Z,1.00
2019-03-15T12:05:14.747Z,1.00
2019-03-15T12:07:43.648Z,0.90
2019-03-15T12:10:14.551Z,1.00
2019-03-15T12:12:43.138Z,0.90
2019-03-15T12:15:13.003Z,0.80
2019-03-15T12:17:41.443Z,0.90
2019-03-15T12:20:11.390Z,0.90
2019-03-15T12:22:39.917Z,1.00
2019-03-15T12:25:09.791Z,1.03
2019-03-15T12:27:38.225Z,0.90
2019-03-15T12:30:09.409Z,0.60
2019-03-15T12:32:38.188Z,0.90
2019-03-15T12:35:09.561Z,0.80
2019-03-15T12:37:38.027Z,0.97
2019-03-15T12:40:11.796Z,0.77
2019-03-15T12:42:40.223Z,0.90
2019-03-15T12:45:12.332Z,0.90
2019-03-15T12:47:40.794Z,0.90
2019-03-15T12:50:10.607Z,1.00
2019-03-15T12:52:47.252Z,0.87
2019-03-15T12:55:10.872Z,0.80
2019-03-15T12:57:39.303Z,0.90
2019-03-15T13:00:09.014Z,0.70
2019-03-15T13:02:37.527Z,1.07
2019-03-15T13:05:07.141Z,0.80
2019-03-15T13:07:35.676Z,0.87
2019-03-15T13:10:06.006Z,0.90
2019-03-15T13:12:34.436Z,0.70
2019-03-15T13:15:02.891Z,0.70
2019-03-15T13:17:31.683Z,0.70
2019-03-15T13:20:00.278Z,0.80
2019-03-15T13:22:28.792Z,0.90
2019-03-15T13:24:57.550Z,0.80
2019-03-15T13:27:25.978Z,0.70
2019-03-15T13:29:54.523Z,0.80
2019-03-15T13:32:22.956Z,0.73
2019-03-15T13:34:51.395Z,0.80
2019-03-15T13:37:20.092Z,0.83
2019-03-15T13:39:48.629Z,0.80
2019-03-15T13:42:18.372Z,0.70
2019-03-15T13:44:46.874Z,0.70
2019-03-15T13:47:16.413Z,0.90
2019-03-15T13:49:44.883Z,0.80
2019-03-15T13:52:13.533Z,0.80
2019-03-15T13:54:42.068Z,1.00
2019-03-15T13:57:20.706Z,0.80
2019-03-15T13:59:40.827Z,0.80
2019-03-15T14:02:09.550Z,0.90
2019-03-15T14:04:38.012Z,0.80
2019-03-15T14:07:06.494Z,1.00
2019-03-15T14:09:35.011Z,0.90
2019-03-15T14:12:03.447Z,0.87
2019-03-15T14:14:32.871Z,0.90
2019-03-15T14:17:02.218Z,0.87
2019-03-15T14:19:30.648Z,0.70
2019-03-15T14:21:59.103Z,0.73
2019-03-15T14:24:27.536Z,0.70
2019-03-15T14:26:56.231Z,0.80
2019-03-15T14:29:24.685Z,0.90
2019-03-15T14:31:53.375Z,0.90
2019-03-15T14:34:21.857Z,0.97
2019-03-15T14:36:50.348Z,0.80
2019-03-15T14:39:19.007Z,1.00
2019-03-15T14:41:47.597Z,0.80
2019-03-15T14:44:18.275Z,1.00
2019-03-15T14:46:47.195Z,0.80
2019-03-15T14:49:15.639Z,1.00
2019-03-15T14:51:44.095Z,0.90
2019-03-15T14:54:12.523Z,0.90
2019-03-15T14:56:40.967Z,0.90
2019-03-15T14:59:09.439Z,0.80
2019-03-15T15:01:37.876Z,1.03
2019-03-15T15:04:06.313Z,1.00
2019-03-15T15:06:34.790Z,1.00
2019-03-15T15:09:03.484Z,0.90
2019-03-15T15:11:31.997Z,1.00
2019-03-15T15:14:00.794Z,0.90
2019-03-15T15:16:29.227Z,1.00
2019-03-15T15:18:57.734Z,0.90
2019-03-15T15:21:26.339Z,0.90
2019-03-15T15:23:54.779Z,0.73
2019-03-15T15:26:23.205Z,0.90
2019-03-15T15:28:51.679Z,1.00
2019-03-15T15:31:20.353Z,0.90
2019-03-15T15:33:48.802Z,0.80
2019-03-15T15:36:17.259Z,0.93
2019-03-15T15:38:45.698Z,0.80
2019-03-15T15:41:14.123Z,0.80
2019-03-15T15:43:42.630Z,0.90
2019-03-15T15:46:11.374Z,1.00
2019-03-15T15:48:39.801Z,0.90
2019-03-15T15:51:08.551Z,0.90
2019-03-15T15:53:36.987Z,0.90
2019-03-15T15:56:05.477Z,1.10
2019-03-15T15:58:33.944Z,1.00
2019-03-15T16:01:02.385Z,1.10
2019-03-15T16:03:30.822Z,1.00
2019-03-15T16:05:59.301Z,1.10
2019-03-15T16:08:27.722Z,1.00
2019-03-15T16:10:56.155Z,1.00
2019-03-15T16:13:24.735Z,1.10
2019-03-15T16:15:53.167Z,1.10
2019-03-15T16:18:21.876Z,1.20
2019-03-15T16:20:50.338Z,1.10
2019-03-15T16:23:18.860Z,1.40
2019-03-15T16:25:47.286Z,1.20
2019-03-15T16:28:15.925Z,1.10
2019-03-15T16:30:44.431Z,1.20
2019-03-15T16:33:13.287Z,1.00
2019-03-15T16:35:41.736Z,1.83
2019-03-15T16:38:10.166Z,1.20
2019-03-15T16:40:38.604Z,1.00
2019-03-15T16:43:07.058Z,0.90
2019-03-15T16:45:35.490Z,1.23
2019-03-15T16:48:04.312Z,1.07
2019-03-15T16:50:32.836Z,1.00
2019-03-15T16:53:01.285Z,1.10
2019-03-15T16:55:29.786Z,1.00
2019-03-15T16:57:58.300Z,0.90
2019-03-15T17:00:26.786Z,1.00
2019-03-15T17:02:55.222Z,2.13
2019-03-15T17:05:24.112Z,1.67
2019-03-15T17:07:52.654Z,1.10
2019-03-15T17:10:21.095Z,1.20
2019-03-15T17:12:49.785Z,1.40
2019-03-15T17:15:20.150Z,1.07
2019-03-15T17:17:48.651Z,1.00
2019-03-15T17:20:17.301Z,1.10
2019-03-15T17:22:45.796Z,1.17
2019-03-15T17:25:14.303Z,1.00
2019-03-15T17:27:42.770Z,1.40
2019-03-15T17:30:16.154Z,1.40
2019-03-15T17:32:44.945Z,1.30
2019-03-15T17:35:17.278Z,1.07
2019-03-15T17:37:45.722Z,1.00
2019-03-15T17:40:18.313Z,1.20
2019-03-15T17:42:47.034Z,1.10
2019-03-15T17:45:15.805Z,1.10
2019-03-15T17:47:44.265Z,1.30
2019-03-15T17:50:17.317Z,1.07
2019-03-15T17:52:45.742Z,1.03
2019-03-15T17:55:15.830Z,1.10
2019-03-15T17:57:45.837Z,1.00
2019-03-15T18:00:37.147Z,3.40
2019-03-15T18:03:20.023Z,1.00
2019-03-15T18:05:38.247Z,1.00
2019-03-15T18:08:06.749Z,1.10
2019-03-15T18:10:35.322Z,1.10
2019-03-15T18:13:03.943Z,1.17
2019-03-15T18:15:32.381Z,1.20
2019-03-15T18:18:00.936Z,0.90
2019-03-15T18:20:29.434Z,1.10
2019-03-15T18:22:57.886Z,1.10
2019-03-15T18:25:26.429Z,1.00
2019-03-15T18:27:55.199Z,1.30
2019-03-15T18:30:23.701Z,1.10
2019-03-15T18:32:52.254Z,0.93
2019-03-15T18:35:33.111Z,1.23
2019-03-15T18:37:51.458Z,1.20
2019-03-15T18:40:22.873Z,1.20
2019-03-15T18:42:51.463Z,1.13
2019-03-15T18:45:20.110Z,1.00
2019-03-15T18:47:48.861Z,1.00
2019-03-15T18:50:22.638Z,1.00
2019-03-15T18:52:51.338Z,1.00
2019-03-15T18:55:20.083Z,1.20
2019-03-15T18:57:49.098Z,1.03
2019-03-15T19:00:22.058Z,0.80
2019-03-15T19:02:50.615Z,0.87
2019-03-15T19:05:19.128Z,1.33
2019-03-15T19:07:47.666Z,0.80
2019-03-15T19:10:16.936Z,1.20
2019-03-15T19:12:45.454Z,0.90
2019-03-15T19:15:21.230Z,0.90
2019-03-15T19:17:49.660Z,1.00
2019-03-15T19:20:18.337Z,0.70
2019-03-15T19:22:46.802Z,1.10
2019-03-15T19:25:15.880Z,1.03
2019-03-15T19:27:44.315Z,1.10
2019-03-15T19:30:18.065Z,1.13
2019-03-15T19:32:46.503Z,1.00
2019-03-15T19:35:15.007Z,1.20
2019-03-15T19:37:43.629Z,1.10
2019-03-15T19:40:19.884Z,1.07
2019-03-15T19:42:49.333Z,1.10
2019-03-15T19:45:17.940Z,0.90
2019-03-15T19:47:46.445Z,1.00
2019-03-15T19:50:21.441Z,1.00
2019-03-15T19:52:49.941Z,1.00
2019-03-15T19:55:20.166Z,1.13
2019-03-15T19:57:50.292Z,1.27
2019-03-15T20:00:22.477Z,1.20
2019-03-15T20:02:51.068Z,1.43
2019-03-15T20:05:19.783Z,1.20
2019-03-15T20:07:48.411Z,1.20
2019-03-15T20:10:17.537Z,1.23
2019-03-15T20:12:46.742Z,1.30
2019-03-15T20:15:18.504Z,1.20
2019-03-15T20:17:47.017Z,1.33
2019-03-15T20:20:21.893Z,1.23
2019-03-15T20:22:50.925Z,1.20
2019-03-15T20:25:21.310Z,1.20
2019-03-15T20:27:51.139Z,1.10
2019-03-15T20:30:25.910Z,1.10
2019-03-15T20:32:51.299Z,1.20
2019-03-15T20:35:20.310Z,1.27
2019-03-15T20:37:49.214Z,1.10
2019-03-15T20:40:17.639Z,1.20
2019-03-15T20:42:46.123Z,1.27
2019-03-15T20:45:23.242Z,1.20
2019-03-15T20:47:51.779Z,1.20
2019-03-15T20:50:20.224Z,1.13
2019-03-15T20:52:48.999Z,1.20
2019-03-15T20:55:17.712Z,1.20
2019-03-15T20:57:46.157Z,1.20
2019-03-15T21:00:34.724Z,1.10
2019-03-15T21:02:53.002Z,1.10
2019-03-15T21:05:21.830Z,1.40
2019-03-15T21:07:50.395Z,1.20
2019-03-15T21:10:19.262Z,1.30
2019-03-15T21:12:47.867Z,1.40
2019-03-15T21:15:16.901Z,1.30
2019-03-15T21:17:45.501Z,1.30
2019-03-15T21:20:17.877Z,1.20
2019-03-15T21:22:46.538Z,1.40
2019-03-15T21:25:15.042Z,1.47
2019-03-15T21:27:53.696Z,1.20
2019-03-15T21:30:19.821Z,1.40
2019-03-15T21:32:48.261Z,1.60
2019-03-15T21:35:16.939Z,1.43
2019-03-15T21:37:45.686Z,1.33
2019-03-15T21:40:15.555Z,1.40
2019-03-15T21:42:44.126Z,1.27
2019-03-15T21:45:13.208Z,1.30
2019-03-15T21:47:41.677Z,2.20
2019-03-15T21:50:15.211Z,1.37
2019-03-15T21:52:43.800Z,1.30
2019-03-15T21:55:12.307Z,1.37
2019-03-15T21:57:40.749Z,1.40
2019-03-15T22:00:18.280Z,1.40
2019-03-15T22:02:46.708Z,1.13
2019-03-15T22:05:15.410Z,1.40
2019-03-15T22:07:43.870Z,1.20
2019-03-15T22:10:14.520Z,1.40
2019-03-15T22:12:43.202Z,1.33
2019-03-15T22:15:13.210Z,1.20
2019-03-15T22:17:42.366Z,1.30
2019-03-15T22:20:12.191Z,1.30
2019-03-15T22:22:40.670Z,1.30
2019-03-15T22:25:09.753Z,1.30
2019-03-15T22:27:38.515Z,1.40
2019-03-15T22:30:10.230Z,1.30
2019-03-15T22:32:39.620Z,1.20
2019-03-15T22:35:08.318Z,1.20
2019-03-15T22:37:37.131Z,1.27
2019-03-15T22:40:08.359Z,1.20
2019-03-15T22:42:36.854Z,1.00
2019-03-15T22:45:07.633Z,1.10
2019-03-15T22:47:36.057Z,1.10
2019-03-15T22:50:05.925Z,1.30
2019-03-15T22:52:34.474Z,1.10
2019-03-15T22:55:02.905Z,1.07
2019-03-15T22:57:31.332Z,1.17
2019-03-15T22:59:59.789Z,1.20
2019-03-15T23:02:28.223Z,1.13
2019-03-15T23:04:56.651Z,1.10
2019-03-15T23:07:25.120Z,1.17
2019-03-15T23:09:53.553Z,1.20
2019-03-15T23:12:22.620Z,1.10
2019-03-15T23:14:51.419Z,1.20
2019-03-15T23:17:19.834Z,1.13
2019-03-15T23:19:48.267Z,1.20
2019-03-15T23:22:16.814Z,1.30
2019-03-15T23:24:45.304Z,1.30
2019-03-15T23:27:13.766Z,1.47
2019-03-15T23:29:42.470Z,1.00
2019-03-15T23:32:10.911Z,1.10
2019-03-15T23:34:39.362Z,1.40
2019-03-15T23:37:07.817Z,1.40
2019-03-15T23:39:36.571Z,1.10
2019-03-15T23:42:05.365Z,1.17
2019-03-15T23:44:33.859Z,1.10
2019-03-15T23:47:02.287Z,1.10
2019-03-15T23:49:30.719Z,1.20
2019-03-15T23:51:59.270Z,1.10
2019-03-15T23:54:27.718Z,1.10
2019-03-15T23:56:56.147Z,1.20
2019-03-15T23:59:24.705Z,1.20
